Time;durP1;ratioP1;P1;durP2;ratioP2;P2;SDS_P1;SDS_P2;PMS_P1;PMS_P2;Temp;Humidity;BMP_temperature;BMP_pressure;BME280_temperature;BME280_humidity;BME280_pressure;Samples;Min_cycle;Max_cycle;Signal;HPM_P1;HPM_P2
2022/01/04 00:02:05;;;;;;;8.63;3.87;;;;;;;8.09;100.00;100216.78;5113138;28;20024;-36
2022/01/04 00:04:31;;;;;;;6.27;3.53;;;;;;;8.16;99.96;100227.47;5113955;28;20034;-36
2022/01/04 00:06:57;;;;;;;5.87;3.10;;;;;;;8.14;99.56;100219.59;5113505;28;20027;-36
2022/01/04 00:09:23;;;;;;;5.55;3.50;;;;;;;7.98;99.95;100186.09;5113620;28;20028;-36
2022/01/04 00:14:17;;;;;;;9.52;4.20;;;;;;;8.16;99.84;100208.63;5115910;28;20130;-36
2022/01/04 00:16:43;;;;;;;8.18;4.10;;;;;;;8.14;100.00;100211.53;5117213;28;20031;-36
2022/01/04 00:19:08;;;;;;;10.83;4.33;;;;;;;8.10;100.00;100198.75;5117316;28;20032;-36
2022/01/04 00:21:34;;;;;;;6.85;3.97;;;;;;;8.06;99.60;100195.72;5116836;28;20412;-36
2022/01/04 00:24:00;;;;;;;8.35;4.15;;;;;;;8.04;99.81;100188.91;5116615;28;20031;-36
2022/01/04 00:26:26;;;;;;;6.43;3.63;;;;;;;8.12;99.96;100200.19;5116862;28;20028;-36
2022/01/04 00:28:51;;;;;;;6.10;3.72;;;;;;;8.12;99.96;100189.41;5117043;28;20360;-36
2022/01/04 00:31:17;;;;;;;10.20;4.17;;;;;;;8.13;99.98;100179.44;5098059;28;20074;-36
2022/01/04 00:33:42;;;;;;;7.38;3.90;;;;;;;8.09;99.28;100162.94;5116273;28;20019;-36
2022/01/04 00:36:07;;;;;;;7.20;3.70;;;;;;;8.08;99.36;100166.69;5116676;28;20024;-36
2022/01/04 00:38:33;;;;;;;5.67;3.80;;;;;;;8.08;100.00;100149.72;5116503;28;20019;-36
2022/01/04 00:40:58;;;;;;;7.97;3.65;;;;;;;8.07;99.51;100153.47;5116263;28;20384;-36
2022/01/04 00:43:24;;;;;;;6.47;3.80;;;;;;;8.00;99.71;100135.53;5116567;28;20423;-36
2022/01/04 00:45:50;;;;;;;4.87;3.33;;;;;;;8.08;99.40;100141.63;5116208;28;20288;-36
2022/01/04 00:50:40;;;;;;;8.13;4.00;;;;;;;8.00;99.65;100122.06;5116412;28;20100;-35
2022/01/04 00:53:07;;;;;;;6.50;3.37;;;;;;;8.08;99.38;100128.97;5115821;28;20062;-35
2022/01/04 00:55:33;;;;;;;;;;;;;;;8.11;99.09;100128.53;5117264;28;20023;-35
2022/01/04 00:57:59;;;;;;;5.00;3.40;;;;;;;8.07;99.78;100134.59;5115977;28;19960;-35
2022/01/04 01:00:25;;;;;;;6.63;3.70;;;;;;;7.98;99.70;100113.41;5116720;28;20393;-35
2022/01/04 01:02:51;;;;;;;;;;;;;;;8.10;99.83;100120.66;5116581;28;20032;-35
2022/01/04 01:05:17;;;;;;;6.57;3.40;;;;;;;7.96;99.17;100096.66;5116732;28;19923;-35
2022/01/04 01:07:42;;;;;;;5.07;3.38;;;;;;;8.00;99.88;100111.31;5116152;28;20361;-35
2022/01/04 01:10:30;;;;;;;5.60;3.45;;;;;;;8.02;99.37;100115.63;5116303;28;20035;-35
2022/01/04 01:12:55;;;;;;;5.90;3.33;;;;;;;8.00;99.36;100111.31;5115899;28;20039;-35
2022/01/04 01:15:21;;;;;;;8.93;3.40;;;;;;;8.00;99.99;100111.31;5115601;28;20471;-35
2022/01/04 01:17:47;;;;;;;5.27;3.50;;;;;;;7.89;99.66;100098.63;5115631;28;20437;-35
2022/01/04 01:20:14;;;;;;;7.38;3.00;;;;;;;7.97;99.64;100111.75;5116098;28;20741;-35
2022/01/04 01:22:40;;;;;;;6.90;3.17;;;;;;;7.88;99.95;100090.78;5115493;28;20019;-35
2022/01/04 01:25:07;;;;;;;4.75;3.13;;;;;;;7.88;99.49;100091.59;5114990;28;20444;-35
2022/01/04 01:27:33;;;;;;;4.30;3.25;;;;;;;7.87;99.63;100084.59;5115340;28;20055;-35
2022/01/04 01:29:58;;;;;;;5.68;3.65;;;;;;;7.92;99.66;100086.59;5115739;28;20051;-36
2022/01/04 01:32:23;;;;;;;6.13;3.20;;;;;;;7.95;99.67;100091.50;5115616;28;20034;-35
2022/01/04 01:34:49;;;;;;;8.37;3.50;;;;;;;7.90;99.79;100084.09;5115590;28;20027;-35
2022/01/04 01:37:14;;;;;;;7.65;3.25;;;;;;;7.89;99.71;100082.47;5115279;28;20101;-35
2022/01/04 01:39:40;;;;;;;6.43;3.20;;;;;;;7.85;100.00;100083.97;5116232;28;20036;-35
2022/01/04 01:42:06;;;;;;;4.43;3.43;;;;;;;7.84;99.81;100078.84;5115847;28;20575;-35
2022/01/04 01:44:32;;;;;;;8.25;3.58;;;;;;;7.84;100.00;100078.84;5115336;28;20250;-35
2022/01/04 01:46:58;;;;;;;;;;;;;;;7.89;99.55;100076.28;5115819;28;20036;-35
2022/01/04 01:49:24;;;;;;;5.53;3.50;;;;;;;7.81;99.81;100064.00;5115196;28;19919;-35
2022/01/04 01:51:49;;;;;;;5.82;3.70;;;;;;;7.80;100.00;100066.88;5114851;28;20351;-35
2022/01/04 01:54:15;;;;;;;9.90;3.83;;;;;;;7.79;100.00;100065.25;5115132;28;20156;-35
2022/01/04 01:56:41;;;;;;;5.90;3.35;;;;;;;7.78;100.00;100061.75;5115127;28;20032;-35
2022/01/04 01:59:06;;;;;;;5.97;3.90;;;;;;;7.78;100.00;100060.94;5115558;28;20146;-35
2022/01/04 02:01:32;;;;;;;8.65;4.13;;;;;;;7.69;100.00;100055.06;5096116;28;20564;-35
2022/01/04 02:03:57;;;;;;;7.63;4.13;;;;;;;7.76;100.00;100071.94;5115217;28;20509;-35
2022/01/04 02:06:24;;;;;;;5.80;4.07;;;;;;;7.73;100.00;100058.94;5114626;28;20447;-35
2022/01/04 02:08:49;;;;;;;5.60;4.25;;;;;;;7.75;100.00;100052.25;5114474;28;20069;-35
2022/01/04 02:11:17;;;;;;;5.55;4.32;;;;;;;7.75;100.00;100054.13;5096517;28;20040;-36
2022/01/04 02:13:42;;;;;;;8.13;4.57;;;;;;;7.75;100.00;100040.66;5114790;28;20035;-35
2022/01/04 02:16:11;;;;;;;8.07;4.32;;;;;;;7.77;100.00;100041.28;5114541;28;20031;-36
2022/01/04 02:18:36;;;;;;;9.07;4.25;;;;;;;7.72;100.00;100027.69;5114386;28;20040;-35
2022/01/04 02:21:02;;;;;;;6.37;4.47;;;;;;;7.63;100.00;100002.19;5115128;28;20075;-35
2022/01/04 02:23:27;;;;;;;10.80;4.97;;;;;;;7.75;100.00;100016.44;5114500;28;20031;-35
2022/01/04 02:25:53;;;;;;;7.03;4.60;;;;;;;7.74;100.00;100014.81;5114073;28;20523;-36
2022/01/04 02:28:20;;;;;;;7.10;4.20;;;;;;;7.80;100.00;100023.81;5114691;28;20484;-35
2022/01/04 02:30:47;;;;;;;6.13;4.20;;;;;;;7.77;100.00;100017.06;5114673;28;20444;-35
2022/01/04 02:33:14;;;;;;;6.93;4.20;;;;;;;7.75;100.00;100011.88;5114179;28;20031;-35
2022/01/04 02:35:39;;;;;;;7.85;4.28;;;;;;;7.75;100.00;100011.88;5113632;28;20081;-36
2022/01/04 02:38:05;;;;;;;7.88;4.78;;;;;;;7.75;100.00;100013.75;5113973;28;20040;-35
2022/01/04 02:40:31;;;;;;;6.73;3.97;;;;;;;7.75;99.93;100011.88;5114139;28;20034;-35
2022/01/04 02:42:57;;;;;;;7.85;3.97;;;;;;;7.72;100.00;100006.97;5113957;28;20027;-35
2022/01/04 02:45:23;;;;;;;;;;;;;;;7.79;100.00;100003.34;5115003;28;20030;-36
2022/01/04 02:47:48;;;;;;;5.15;3.63;;;;;;;7.66;99.92;100001.69;5113523;28;19919;-36
2022/01/04 02:50:14;;;;;;;6.07;4.20;;;;;;;7.73;100.00;99989.78;5095747;28;20106;-36
2022/01/04 02:52:39;;;;;;;6.77;3.73;;;;;;;7.70;100.00;99992.09;5113766;28;20117;-36
2022/01/04 02:55:07;;;;;;;5.57;3.83;;;;;;;7.62;100.00;99976.31;5114345;28;20043;-36
2022/01/04 02:57:34;;;;;;;5.65;3.88;;;;;;;7.66;100.00;99988.25;5113696;28;20067;-36
2022/01/04 02:59:59;;;;;;;6.22;3.65;;;;;;;7.70;100.00;99986.72;5114517;28;20358;-36
2022/01/04 03:02:25;;;;;;;5.17;3.47;;;;;;;7.59;99.89;99968.72;5113703;28;20111;-36
2022/01/04 03:04:50;;;;;;;6.13;3.87;;;;;;;7.57;100.00;99960.88;5096077;28;20103;-36
2022/01/04 03:07:16;;;;;;;8.07;4.22;;;;;;;7.65;100.00;99965.06;5113599;28;20031;-36
2022/01/04 03:09:41;;;;;;;7.05;3.97;;;;;;;7.64;100.00;99961.56;5114190;28;20020;-36
2022/01/04 03:12:07;;;;;;;8.43;3.92;;;;;;;7.67;99.84;99966.50;5113605;28;20031;-36
2022/01/04 03:14:34;;;;;;;4.88;4.05;;;;;;;7.52;100.00;99946.50;5113748;28;20043;-36
2022/01/04 03:16:59;;;;;;;;;;;;;;;7.73;100.00;99959.34;5113644;28;20024;-36
2022/01/04 03:19:24;;;;;;;6.20;4.13;;;;;;;7.52;99.83;99931.16;5114296;28;20010;-36
2022/01/04 03:21:50;;;;;;;6.33;4.30;;;;;;;7.68;99.89;99951.97;5113551;28;20031;-36
2022/01/04 03:24:16;;;;;;;11.07;4.97;;;;;;;7.65;99.79;99938.97;5113803;28;20026;-36
2022/01/04 03:26:42;;;;;;;7.57;4.07;;;;;;;7.64;100.00;99925.78;5113447;28;20106;-36
2022/01/04 03:29:09;;;;;;;7.85;4.90;;;;;;;7.63;99.87;99927.66;5114119;28;20106;-36
2022/01/04 03:31:35;;;;;;;8.38;4.55;;;;;;;7.56;100.00;99916.16;5113356;28;20034;-36
2022/01/04 03:34:02;;;;;;;6.85;4.78;;;;;;;7.60;100.00;99914.66;5113775;28;20464;-36
2022/01/04 03:36:28;;;;;;;7.20;4.75;;;;;;;7.60;99.63;99906.59;5113891;28;20345;-36
2022/01/04 03:38:55;;;;;;;9.00;5.45;;;;;;;7.59;99.95;99902.25;5113405;28;20035;-36
2022/01/04 03:41:22;;;;;;;6.25;4.47;;;;;;;7.62;100.00;99898.28;5113255;28;20371;-36
2022/01/04 03:43:48;;;;;;;6.95;5.28;;;;;;;7.57;99.68;99879.34;5113594;28;20054;-36
2022/01/04 03:46:13;;;;;;;8.98;5.18;;;;;;;7.54;99.85;99863.66;5113011;28;20054;-36
2022/01/04 03:48:39;;;;;;;10.43;5.47;;;;;;;7.57;99.87;99866.72;5117202;28;20488;-36
2022/01/04 03:51:05;;;;;;;8.45;5.05;;;;;;;7.55;100.00;99870.69;5116983;28;20024;-36
2022/01/04 03:53:31;;;;;;;8.82;5.28;;;;;;;7.55;100.00;99866.13;5118099;28;20414;-36
2022/01/04 03:55:56;;;;;;;10.27;5.03;;;;;;;7.54;99.80;99866.34;5117324;28;20049;-36
2022/01/04 03:58:22;;;;;;;7.17;4.60;;;;;;;7.59;99.76;99864.59;5117704;28;20039;-36
2022/01/04 04:00:48;;;;;;;8.00;4.95;;;;;;;7.49;100.00;99845.53;5117478;28;20034;-36
2022/01/04 04:03:14;;;;;;;12.52;5.03;;;;;;;7.55;99.81;99852.66;5117045;28;20028;-36
2022/01/04 04:05:40;;;;;;;8.63;4.82;;;;;;;7.49;99.81;99840.16;5117411;28;20356;-36
2022/01/04 04:08:05;;;;;;;9.83;5.43;;;;;;;7.54;100.00;99842.16;5116936;28;20067;-36
2022/01/04 04:10:31;;;;;;;8.80;5.47;;;;;;;7.41;100.00;99835.13;5117742;28;20257;-36
2022/01/04 04:12:56;;;;;;;7.80;4.30;;;;;;;7.45;99.76;99834.41;5116914;28;20042;-36
2022/01/04 04:15:21;;;;;;;10.50;5.60;;;;;;;7.28;100.00;99814.69;5117933;28;20055;-36
2022/01/04 04:17:47;;;;;;;9.23;4.90;;;;;;;7.48;100.00;99838.53;5117087;28;20169;-36
2022/01/04 04:20:12;;;;;;;7.70;4.72;;;;;;;7.52;100.00;99831.63;5117437;28;20471;-36
2022/01/04 04:22:39;;;;;;;9.80;4.95;;;;;;;7.52;100.00;99822.75;5116736;28;20033;-36
2022/01/04 04:25:05;;;;;;;6.88;4.60;;;;;;;7.51;100.00;99816.50;5117006;28;20107;-36
2022/01/04 04:27:30;;;;;;;8.57;4.07;;;;;;;7.48;100.00;99815.13;5116889;28;20058;-36
2022/01/04 04:29:55;;;;;;;8.03;4.50;;;;;;;7.35;99.70;99785.78;5116279;28;20085;-36
2022/01/04 04:32:21;;;;;;;7.63;5.00;;;;;;;7.48;100.00;99820.50;5117248;28;20583;-36
2022/01/04 04:34:46;;;;;;;7.70;5.37;;;;;;;7.48;100.00;99825.06;5116218;28;20024;-36
2022/01/04 04:37:12;;;;;;;7.67;4.77;;;;;;;7.47;99.56;99815.38;5116397;28;20031;-36
2022/01/04 04:39:37;;;;;;;7.83;5.60;;;;;;;7.47;100.00;99816.19;5116955;28;20039;-36
2022/01/04 04:42:03;;;;;;;11.87;5.83;;;;;;;7.50;100.00;99809.50;5116365;28;20027;-36
2022/01/04 04:44:28;;;;;;;5.55;4.50;;;;;;;7.49;100.00;99813.25;5116600;28;20344;-36
2022/01/04 04:46:53;;;;;;;10.60;5.67;;;;;;;7.45;99.88;99807.53;5115966;28;20114;-36
2022/01/04 04:49:19;;;;;;;9.63;4.80;;;;;;;7.47;100.00;99807.31;5116682;28;20024;-36
2022/01/04 04:51:44;;;;;;;8.37;5.03;;;;;;;7.45;100.00;99812.91;5116183;28;20477;-36
2022/01/04 04:54:10;;;;;;;8.38;5.38;;;;;;;7.46;100.00;99814.53;5116305;28;20130;-36
2022/01/04 04:56:38;;;;;;;8.37;5.37;;;;;;;7.42;100.00;99816.06;5116084;28;20111;-36
2022/01/04 04:59:08;;;;;;;8.13;6.13;;;;;;;7.44;100.00;99816.66;5115726;28;20027;-36
2022/01/04 05:01:34;;;;;;;10.75;6.20;;;;;;;7.42;100.00;99813.38;5115871;28;20391;-36
2022/01/04 05:03:59;;;;;;;9.13;5.70;;;;;;;7.35;100.00;99803.78;5116188;28;20035;-36
2022/01/04 05:06:25;;;;;;;9.77;5.40;;;;;;;7.42;100.00;99799.94;5115832;28;20085;-36
2022/01/04 05:08:51;;;;;;;8.77;5.90;;;;;;;7.42;100.00;99791.06;5116480;28;20023;-37
2022/01/04 05:11:16;;;;;;;13.00;6.70;;;;;;;7.41;100.00;99800.97;5115450;28;20038;-36
2022/01/04 05:13:42;;;;;;;9.33;6.23;;;;;;;7.37;100.00;99807.91;5115546;28;20035;-36
2022/01/04 05:16:07;;;;;;;8.30;6.07;;;;;;;7.35;100.00;99804.59;5115688;28;20031;-36
2022/01/04 05:18:32;;;;;;;10.43;6.43;;;;;;;7.41;100.00;99800.97;5116281;28;20120;-36
2022/01/04 05:20:58;;;;;;;9.63;6.57;;;;;;;7.39;100.00;99792.31;5115380;28;20485;-36
2022/01/04 05:23:23;;;;;;;10.70;6.63;;;;;;;7.40;100.00;99777.81;5115335;28;20023;-36
2022/01/04 05:25:48;;;;;;;9.40;5.97;;;;;;;7.39;100.00;99780.75;5115551;28;20107;-36
2022/01/04 05:28:14;;;;;;;9.47;6.87;;;;;;;7.27;100.00;99753.88;5115651;28;20344;-36
2022/01/04 05:30:39;;;;;;;10.73;6.53;;;;;;;7.36;100.00;99779.34;5116104;28;20027;-36
2022/01/04 05:33:04;;;;;;;11.33;6.73;;;;;;;7.37;100.00;99777.47;5115290;28;20486;-36
2022/01/04 05:35:30;;;;;;;9.37;6.50;;;;;;;7.35;100.00;99775.03;5115885;28;20035;-36
2022/01/04 05:37:55;;;;;;;11.73;6.70;;;;;;;7.36;100.00;99757.81;5115044;28;20080;-36
2022/01/04 05:40:20;;;;;;;13.37;7.10;;;;;;;7.36;100.00;99751.63;5115441;28;20477;-36
2022/01/04 05:42:46;;;;;;;10.03;7.13;;;;;;;7.35;100.00;99750.00;5115146;28;20032;-35
2022/01/04 05:45:11;;;;;;;13.17;7.37;;;;;;;7.23;100.00;99729.34;5115626;28;20701;-35
2022/01/04 05:47:37;;;;;;;11.40;7.28;;;;;;;7.24;100.00;99732.84;5114728;28;20062;-36
2022/01/04 05:50:05;;;;;;;13.27;7.80;;;;;;;7.32;100.00;99748.63;5115596;28;20056;-36
2022/01/04 05:52:31;;;;;;;15.77;8.32;;;;;;;7.29;100.00;99732.94;5115673;28;20035;-36
2022/01/04 05:54:57;;;;;;;12.10;7.78;;;;;;;7.20;100.00;99727.09;5114642;28;20217;-36
2022/01/04 05:57:22;;;;;;;14.17;8.17;;;;;;;7.28;100.00;99744.75;5115328;28;20063;-35
2022/01/04 05:59:47;;;;;;;14.67;8.57;;;;;;;7.12;100.00;99715.88;5115337;28;20118;-36
2022/01/04 06:02:13;;;;;;;12.40;8.57;;;;;;;7.25;100.00;99747.09;5114929;28;20065;-36
2022/01/04 06:04:38;;;;;;;16.17;8.97;;;;;;;7.22;100.00;99746.53;5115051;28;20492;-36
2022/01/04 06:07:03;;;;;;;15.50;8.67;;;;;;;7.22;100.00;99746.53;5114417;28;20055;-36
2022/01/04 06:09:39;;;;;;;16.67;9.00;;;;;;;7.24;100.00;99743.59;5115100;28;20020;-35
2022/01/04 06:14:50;;;;;;;17.67;9.97;;;;;;;7.08;100.00;99709.38;5114293;28;20755;-35
2022/01/04 06:14:56;;;;;;;14.82;9.35;;;;;;;7.23;100.00;99731.22;5114406;28;20399;-35
2022/01/04 06:17:26;;;;;;;16.77;9.70;;;;;;;7.24;100.00;99732.84;5114785;28;20024;-36
2022/01/04 06:19:51;;;;;;;15.18;9.95;;;;;;;7.11;100.00;99711.56;5114241;28;20027;-35
2022/01/04 06:22:17;;;;;;;15.63;9.87;;;;;;;7.20;100.00;99737.06;5114461;28;20111;-35
2022/01/04 06:24:42;;;;;;;12.27;8.93;;;;;;;7.14;100.00;99713.81;5114382;28;20056;-36
2022/01/04 06:27:09;;;;;;;15.40;9.30;;;;;;;7.19;100.00;99720.09;5114643;28;20030;-35
2022/01/04 06:29:37;;;;;;;13.45;9.43;;;;;;;7.06;100.00;99701.53;5113916;28;20024;-35
2022/01/04 06:32:03;;;;;;;14.45;9.15;;;;;;;7.21;100.00;99730.59;5113971;28;20085;-35
2022/01/04 06:34:28;;;;;;;15.82;9.95;;;;;;;7.22;100.00;99730.41;5114691;28;20038;-35
2022/01/04 06:36:54;;;;;;;15.67;9.47;;;;;;;7.19;100.00;99738.09;5114206;28;20451;-36
2022/01/04 06:39:20;;;;;;;16.50;10.40;;;;;;;7.14;100.00;99724.56;5113817;28;20595;-35
2022/01/04 06:41:45;;;;;;;14.18;9.80;;;;;;;7.14;100.00;99721.88;5113887;28;20134;-35
2022/01/04 06:44:11;;;;;;;16.63;10.57;;;;;;;7.11;100.00;99715.06;5114162;28;20020;-35
2022/01/04 06:46:38;;;;;;;14.80;10.00;;;;;;;7.13;100.00;99721.06;5095588;28;20479;-35
2022/01/04 06:49:03;;;;;;;15.50;9.95;;;;;;;7.11;100.00;99733.06;5096583;28;20027;-35
2022/01/04 06:51:29;;;;;;;16.87;10.47;;;;;;;7.09;100.00;99716.38;5113826;28;20091;-36
2022/01/04 06:53:54;;;;;;;13.60;9.90;;;;;;;6.96;100.00;99693.25;5114302;28;20246;-36
2022/01/04 06:56:19;;;;;;;17.37;9.73;;;;;;;7.09;100.00;99717.19;5113733;28;20027;-36
2022/01/04 06:58:45;;;;;;;15.97;10.50;;;;;;;7.10;100.00;99707.25;5113729;28;20523;-36
2022/01/04 07:01:10;;;;;;;15.40;9.80;;;;;;;7.11;100.00;99701.63;5113683;28;20027;-36
2022/01/04 07:03:35;;;;;;;17.37;10.47;;;;;;;7.11;100.00;99692.75;5113751;28;20027;-36
2022/01/04 07:06:01;;;;;;;17.90;10.03;;;;;;;7.04;100.00;99681.31;5114357;28;20077;-36
2022/01/04 07:08:26;;;;;;;14.83;10.37;;;;;;;7.09;100.00;99690.31;5113661;28;20028;-36
2022/01/04 07:10:51;;;;;;;15.77;10.10;;;;;;;6.97;100.00;99666.13;5113813;28;20015;-36
2022/01/04 07:13:17;;;;;;;17.30;11.23;;;;;;;7.11;100.00;99677.44;5113491;28;20035;-36
2022/01/04 07:15:42;;;;;;;15.30;10.80;;;;;;;7.06;100.00;99674.63;5114113;28;20075;-36
2022/01/04 07:18:08;;;;;;;15.33;11.03;;;;;;;7.06;100.00;99673.81;5113949;28;20031;-36
2022/01/04 07:20:33;;;;;;;17.13;12.17;;;;;;;7.08;100.00;99669.88;5114096;28;20281;-36
2022/01/04 07:22:58;;;;;;;16.03;11.83;;;;;;;7.08;100.00;99663.69;5112604;28;20024;-36
2022/01/04 07:25:24;;;;;;;18.87;12.00;;;;;;;7.07;100.00;99664.69;5113791;28;20097;-36
2022/01/04 07:27:49;;;;;;;17.73;11.80;;;;;;;7.13;100.00;99661.09;5113214;28;20089;-36
2022/01/04 07:30:15;;;;;;;18.87;12.67;;;;;;;7.11;100.00;99655.94;5113833;28;20059;-36
2022/01/04 07:32:40;;;;;;;16.50;12.07;;;;;;;7.12;100.00;99649.50;5113301;28;20023;-36
2022/01/04 07:35:07;;;;;;;16.42;12.73;;;;;;;7.12;100.00;99635.25;5113813;28;20055;-36
2022/01/04 07:37:32;;;;;;;17.73;12.38;;;;;;;7.14;100.00;99633.16;5113342;28;20069;-36
2022/01/04 07:39:57;;;;;;;17.20;12.27;;;;;;;7.05;100.00;99626.50;5113622;28;20027;-36
2022/01/04 07:42:23;;;;;;;17.57;12.53;;;;;;;7.10;100.00;99634.66;5113247;28;20340;-36
2022/01/04 07:44:48;;;;;;;18.20;11.73;;;;;;;7.13;100.00;99639.59;5113690;28;20068;-36
2022/01/04 07:47:13;;;;;;;15.27;11.40;;;;;;;7.10;100.00;99634.66;5113218;28;20147;-36
2022/01/04 07:49:39;;;;;;;16.03;12.47;;;;;;;7.05;100.00;99640.75;5113054;28;20153;-36
2022/01/04 07:52:04;;;;;;;19.13;13.00;;;;;;;7.02;100.00;99648.47;5113086;28;20051;-36
2022/01/04 07:54:30;;;;;;;17.02;11.90;;;;;;;7.12;100.00;99657.56;5113063;28;20521;-36
2022/01/04 07:56:55;;;;;;;19.87;12.50;;;;;;;7.12;100.00;99659.44;5113312;28;20023;-36
2022/01/04 07:59:21;;;;;;;16.90;13.25;;;;;;;7.04;100.00;99662.50;5113343;28;20438;-36
2022/01/04 08:01:46;;;;;;;15.55;11.95;;;;;;;7.08;100.00;99666.38;5113212;28;20115;-36
2022/01/04 08:04:12;;;;;;;20.77;14.40;;;;;;;7.10;100.00;99658.88;5113550;28;20050;-36
2022/01/04 08:06:39;;;;;;;16.63;12.47;;;;;;;7.09;100.00;99641.91;5112931;28;20024;-36
2022/01/04 08:09:04;;;;;;;18.42;12.90;;;;;;;7.01;100.00;99644.16;5112904;28;20090;-36
2022/01/04 08:11:30;;;;;;;17.88;12.77;;;;;;;7.11;100.00;99655.13;5112910;28;20065;-36
2022/01/04 08:13:55;;;;;;;19.13;13.73;;;;;;;6.99;100.00;99636.34;5113485;28;20441;-36
2022/01/04 08:16:20;;;;;;;21.83;14.70;;;;;;;7.07;100.00;99649.38;5112884;28;20123;-36
2022/01/04 08:18:46;;;;;;;21.10;14.70;;;;;;;7.07;100.00;99654.75;5112917;28;20534;-36
2022/01/04 08:21:11;;;;;;;19.97;13.57;;;;;;;7.09;100.00;99658.06;5112840;28;20036;-36
2022/01/04 08:23:37;;;;;;;20.23;14.00;;;;;;;7.10;100.00;99659.69;5112834;28;20502;-36
2022/01/04 08:26:03;;;;;;;21.80;14.57;;;;;;;7.13;100.00;99663.78;5112638;28;20460;-36
2022/01/04 08:28:28;;;;;;;17.88;13.90;;;;;;;7.13;100.00;99663.78;5112420;28;20387;-36
2022/01/04 08:30:53;;;;;;;24.50;16.60;;;;;;;7.13;100.00;99658.41;5113342;28;20038;-36
2022/01/04 08:33:19;;;;;;;21.80;15.47;;;;;;;7.13;100.00;99664.59;5112545;28;20035;-36
2022/01/04 08:35:44;;;;;;;20.67;14.07;;;;;;;7.16;100.00;99666.78;5117353;28;20031;-36
2022/01/04 08:38:10;;;;;;;22.10;16.05;;;;;;;7.18;100.00;99666.56;5116392;28;20051;-36
2022/01/04 08:40:36;;;;;;;22.10;16.20;;;;;;;7.10;100.00;99645.44;5116854;28;20051;-36
2022/01/04 08:43:02;;;;;;;24.75;16.92;;;;;;;7.16;100.00;99665.97;5115945;28;20421;-36
2022/01/04 08:45:27;;;;;;;21.13;16.55;;;;;;;7.19;100.00;99676.28;5116228;28;20031;-36
2022/01/04 08:47:53;;;;;;;22.83;16.10;;;;;;;7.19;100.00;99689.72;5116141;28;20076;-36
2022/01/04 08:50:19;;;;;;;25.02;16.77;;;;;;;7.03;100.00;99664.38;5116178;28;20456;-36
2022/01/04 08:52:45;;;;;;;23.17;17.20;;;;;;;7.18;100.00;99694.28;5116064;28;20031;-36
2022/01/04 08:55:11;;;;;;;25.77;18.63;;;;;;;7.17;100.00;99676.50;5116821;28;20058;-36
2022/01/04 08:57:38;;;;;;;21.40;16.58;;;;;;;7.18;100.00;99688.91;5116150;28;20463;-36
2022/01/04 09:00:05;;;;;;;26.25;16.25;;;;;;;7.19;100.00;99687.84;5115842;28;20387;-36
2022/01/04 09:02:32;;;;;;;25.67;17.70;;;;;;;7.15;100.00;99675.09;5115689;28;20416;-36
2022/01/04 09:04:57;;;;;;;23.80;18.05;;;;;;;7.25;100.00;99693.31;5116084;28;20048;-36
2022/01/04 09:07:22;;;;;;;23.87;17.30;;;;;;;7.29;100.00;99691.78;5115514;28;20081;-36
2022/01/04 09:09:49;;;;;;;25.50;17.93;;;;;;;7.29;100.00;99683.72;5115749;28;20059;-36
2022/01/04 09:12:15;;;;;;;;;;;;;;;7.36;100.00;99682.53;5116117;28;20462;-36
2022/01/04 09:14:53;;;;;;;27.50;18.30;;;;;;;7.33;100.00;99674.94;5115572;28;19915;-36
2022/01/04 09:20:24;;;;;;;22.80;17.80;;;;;;;7.34;100.00;99671.19;5013337;28;20042;-36
2022/01/04 09:22:50;;;;;;;25.77;18.83;;;;;;;7.27;100.00;99659.78;5013050;28;20466;-36
2022/01/04 09:25:15;;;;;;;25.93;19.10;;;;;;;7.26;100.00;99658.13;5013555;28;20038;-36
2022/01/04 09:27:41;;;;;;;27.97;19.43;;;;;;;7.38;100.00;99676.94;5012650;28;20037;-36
2022/01/04 09:30:06;;;;;;;28.43;19.30;;;;;;;7.35;100.00;99682.78;5013135;28;20050;-36
2022/01/04 09:32:33;;;;;;;27.73;19.65;;;;;;;7.33;100.00;99688.41;5013301;28;20046;-36
2022/01/04 09:34:59;;;;;;;27.02;19.60;;;;;;;7.39;100.00;99705.44;5012542;28;20034;-36
2022/01/04 09:37:24;;;;;;;29.92;20.30;;;;;;;7.43;100.00;99706.63;5012941;28;20137;-36
2022/01/04 09:39:50;;;;;;;27.42;20.63;;;;;;;7.45;100.00;99696.41;5012811;28;20038;-36
2022/01/04 09:42:16;;;;;;;29.63;20.52;;;;;;;7.41;100.00;99690.69;5012416;28;20033;-36
2022/01/04 09:44:41;;;;;;;30.15;20.83;;;;;;;7.45;100.00;99696.41;5012312;28;20038;-36
2022/01/04 09:47:06;;;;;;;26.57;20.80;;;;;;;7.44;100.00;99702.88;5012287;28;20394;-36
2022/01/04 09:49:33;;;;;;;27.63;20.63;;;;;;;7.41;100.00;99700.63;4996344;28;20082;-36
2022/01/04 09:51:59;;;;;;;30.65;20.20;;;;;;;7.33;100.00;99683.03;5099088;28;20035;-36
2022/01/04 09:54:27;;;;;;;27.73;19.15;;;;;;;7.40;100.00;99683.69;5114995;28;20035;-36
2022/01/04 09:56:53;;;;;;;33.42;21.48;;;;;;;7.47;100.00;99689.75;5114737;28;20027;-36
2022/01/04 09:59:19;;;;;;;27.55;20.10;;;;;;;7.48;100.00;99679.81;5115051;28;20027;-36
2022/01/04 10:01:50;;;;;;;;;;;;;;;7.53;100.00;99676.41;5114804;28;20031;-36
2022/01/04 10:04:16;;;;;;;30.10;20.05;;;;;;;7.49;100.00;99679.56;5114742;28;19907;-37
2022/01/04 10:06:55;;;;;;;;;;;;;;;7.54;100.00;99688.81;5115147;28;20047;-36
2022/01/04 10:09:38;;;;;;;27.88;19.63;;;;;;;7.52;100.00;99689.06;5114813;28;20010;-36
2022/01/04 10:12:05;;;;;;;34.28;21.05;;;;;;;7.44;100.00;99682.16;5114652;28;20032;-36
2022/01/04 10:14:39;;;;;;;30.25;21.42;;;;;;;7.52;100.00;99686.34;5115354;28;20226;-36
2022/01/04 10:17:10;;;;;;;28.17;20.13;;;;;;;7.54;100.00;99673.47;5114797;28;20104;-36
2022/01/04 10:19:39;;;;;;;25.67;19.38;;;;;;;7.48;100.00;99653.72;5114114;28;20044;-36
2022/01/04 10:22:15;;;;;;;28.13;19.92;;;;;;;7.56;100.00;99665.16;5114096;28;20472;-36
2022/01/04 10:24:42;;;;;;;31.63;21.33;;;;;;;7.54;100.00;99645.75;5115196;28;20054;-36
2022/01/04 10:27:31;;;;;;;25.92;19.45;;;;;;;7.62;100.00;99642.69;5114392;28;20447;-36
2022/01/04 10:30:20;;;;;;;32.22;19.95;;;;;;;7.63;100.00;99647.00;5114182;28;20096;-37
2022/01/04 10:32:54;;;;;;;27.83;19.75;;;;;;;7.62;100.00;99650.75;5114145;28;20027;-36
2022/01/04 10:35:26;;;;;;;28.77;20.10;;;;;;;7.56;100.00;99635.56;5114146;28;20031;-36
2022/01/04 10:37:52;;;;;;;30.80;20.77;;;;;;;7.65;100.00;99652.94;5114340;28;20519;-36
2022/01/04 10:40:19;;;;;;;30.20;20.40;;;;;;;7.62;100.00;99634.63;5114468;28;20465;-36
2022/01/04 10:42:45;;;;;;;25.05;19.85;;;;;;;7.68;100.00;99639.03;5113979;28;20498;-36
2022/01/04 10:45:28;;;;;;;30.97;21.20;;;;;;;7.70;100.00;99651.16;5114238;28;20059;-36
2022/01/04 10:47:54;;;;;;;29.88;20.20;;;;;;;7.69;100.00;99646.03;5114003;28;20027;-36
2022/01/04 10:50:39;;;;;;;33.05;20.55;;;;;;;7.71;100.00;99646.59;5114148;28;20037;-36
2022/01/04 10:53:05;;;;;;;30.30;21.50;;;;;;;7.69;100.00;99640.66;5113863;28;20016;-36
2022/01/04 10:55:34;;;;;;;;;;;;;;;7.75;100.00;99637.81;5114555;28;20024;-36
2022/01/04 10:58:01;;;;;;;29.73;21.27;;;;;;;7.66;100.00;99635.75;5112943;28;19915;-36
2022/01/04 11:00:27;;;;;;;30.75;21.17;;;;;;;7.73;100.00;99653.38;5114012;28;20141;-36
2022/01/04 11:02:53;;;;;;;30.45;20.55;;;;;;;7.66;100.00;99638.44;5113419;28;20026;-36
2022/01/04 11:05:21;;;;;;;29.47;21.37;;;;;;;7.75;100.00;99647.75;5113639;28;20028;-36
2022/01/04 11:08:04;;;;;;;30.90;21.30;;;;;;;7.76;100.00;99641.34;5113882;28;20265;-36
2022/01/04 11:10:32;;;;;;;29.20;20.98;;;;;;;7.75;100.00;99650.44;5113739;28;20032;-36
2022/01/04 11:12:59;;;;;;;29.80;20.20;;;;;;;7.72;100.00;99646.38;5113520;28;20060;-36
2022/01/04 11:15:25;;;;;;;29.60;20.95;;;;;;;7.62;100.00;99630.06;5114328;28;20059;-36
2022/01/04 11:17:52;;;;;;;33.60;21.58;;;;;;;7.70;100.00;99640.41;5113707;28;20031;-36
2022/01/04 11:20:17;;;;;;;34.03;21.83;;;;;;;7.76;100.00;99654.78;5113704;28;20478;-36
2022/01/04 11:22:48;;;;;;;28.47;21.03;;;;;;;7.72;100.00;99656.34;5113950;28;20062;-36
2022/01/04 11:25:21;;;;;;;20.15;14.90;;;;;;;7.37;100.00;99621.47;5113240;28;20368;-36
2022/01/04 11:27:47;;;;;;;21.42;14.98;;;;;;;7.47;100.00;99648.59;5113605;28;20039;-36
2022/01/04 11:30:34;;;;;;;15.93;12.18;;;;;;;7.46;100.00;99661.19;5113249;28;20108;-36
2022/01/04 11:33:06;;;;;;;14.90;11.13;;;;;;;7.38;100.00;99669.66;5113904;28;20127;-36